N114HF KMQI-KFFA
Flight info
| Callsign | N114HF |
|---|---|
| Flight time | 0h -8m |
| Altitude | 1500 |
| Route | VFR EAST |
| Aircraft | BE36/L-VGD/C |
Departure
| Time | 2026-04-25 01:10 |
|---|---|
| Airport | Dare County Regional Airport (KMQI) |
Arrival
| Time | 2026-04-25 01:02 |
|---|---|
| Airport | First Flight Airport (KFFA) |
| Time | Latitude | Longitude | Altitude | Speed | Heading |
|---|---|---|---|---|---|
| 2026-04-25 01:02 | 35.91647 | -75.70097 | 9 ft | 0 kts | 354° |
| 2026-04-25 01:07 | 35.91655 | -75.70090 | 9 ft | 6 kts | 84° |
| 2026-04-25 01:08 | 35.91603 | -75.70048 | 9 ft | 10 kts | 121° |
| 2026-04-25 01:08 | 35.91659 | -75.69957 | 9 ft | 19 kts | 37° |
| 2026-04-25 01:08 | 35.91791 | -75.69828 | 9 ft | 28 kts | 37° |
| 2026-04-25 01:08 | 35.91964 | -75.69660 | 10 ft | 34 kts | 37° |
| 2026-04-25 01:09 | 35.92149 | -75.69484 | 10 ft | 31 kts | 38° |
| 2026-04-25 01:09 | 35.92299 | -75.69340 | 10 ft | 16 kts | 50° |
| 2026-04-25 01:09 | 35.92258 | -75.69255 | 10 ft | 12 kts | 178° |
| 2026-04-25 01:09 | 35.92150 | -75.69353 | 10 ft | 44 kts | 217° |
| 2026-04-25 01:10 | 35.91794 | -75.69702 | 38 ft | 77 kts | 216° |
| 2026-04-25 01:10 | 35.91357 | -75.70155 | 204 ft | 85 kts | 217° |
| 2026-04-25 01:10 | 35.90905 | -75.70572 | 482 ft | 79 kts | 214° |
| 2026-04-25 01:10 | 35.90409 | -75.70887 | 661 ft | 85 kts | 179° |
| 2026-04-25 01:11 | 35.89891 | -75.70423 | 710 ft | 108 kts | 124° |
| 2026-04-25 01:11 | 35.89625 | -75.69566 | 917 ft | 113 kts | 84° |
| 2026-04-25 01:11 | 35.90188 | -75.68841 | 998 ft | 128 kts | 29° |
| 2026-04-25 01:11 | 35.91009 | -75.68256 | 1035 ft | 142 kts | 28° |
| 2026-04-25 01:12 | 35.91867 | -75.67611 | 1059 ft | 154 kts | 30° |
| 2026-04-25 01:12 | 35.92820 | -75.66881 | 1043 ft | 165 kts | 30° |
| 2026-04-25 01:12 | 35.93819 | -75.66116 | 1036 ft | 172 kts | 30° |
| 2026-04-25 01:12 | 35.94795 | -75.65363 | 1364 ft | 156 kts | 30° |
| 2026-04-25 01:13 | 35.95719 | -75.64629 | 1401 ft | 162 kts | 30° |
| 2026-04-25 01:13 | 35.96682 | -75.63882 | 1393 ft | 165 kts | 28° |
| 2026-04-25 01:13 | 35.97797 | -75.63653 | 1404 ft | 163 kts | 355° |
| 2026-04-25 01:13 | 35.98902 | -75.63957 | 1391 ft | 163 kts | 341° |
| 2026-04-25 01:14 | 36.00005 | -75.64330 | 1395 ft | 164 kts | 341° |
| 2026-04-25 01:14 | 36.01113 | -75.64706 | 1395 ft | 165 kts | 341° |
| 2026-04-25 01:14 | 36.02221 | -75.65023 | 1462 ft | 161 kts | 356° |
| 2026-04-25 01:14 | 36.03353 | -75.64885 | 1524 ft | 159 kts | 1° |
| 2026-04-25 01:15 | 36.04427 | -75.64909 | 1436 ft | 153 kts | 335° |
| 2026-04-25 01:15 | 36.05077 | -75.65906 | 1095 ft | 153 kts | 278° |
| 2026-04-25 01:15 | 36.04520 | -75.66896 | 751 ft | 152 kts | 199° |
| 2026-04-25 01:15 | 36.03566 | -75.66875 | 478 ft | 124 kts | 175° |
| 2026-04-25 01:16 | 36.02845 | -75.66872 | 293 ft | 89 kts | 183° |
| 2026-04-25 01:16 | 36.02245 | -75.66998 | 58 ft | 86 kts | 194° |
| 2026-04-25 01:16 | 36.01744 | -75.67162 | 9 ft | 61 kts | 194° |
| 2026-04-25 01:16 | 36.01512 | -75.67239 | 9 ft | 17 kts | 184° |
| 2026-04-25 01:17 | 36.01443 | -75.67170 | 10 ft | 5 kts | 180° |
| 2026-04-25 01:17 | 36.01440 | -75.67170 | 10 ft | 0 kts | 193° |